sensor_id;sensor_type;location;lat;lon;timestamp;pressure;altitude;pressure_sealevel;temperature;humidity
76627;BME280;65519;53.230;10.390;2023-04-24T00:00:45;99713.56;;;13.11;71.77
76627;BME280;65519;53.230;10.390;2023-04-24T00:03:11;99721.47;;;13.12;72.21
76627;BME280;65519;53.230;10.390;2023-04-24T00:05:38;99719.28;;;13.01;72.37
76627;BME280;65519;53.230;10.390;2023-04-24T00:08:05;99719.50;;;13.04;72.36
76627;BME280;65519;53.230;10.390;2023-04-24T00:10:31;99703.88;;;13.05;71.73
76627;BME280;65519;53.230;10.390;2023-04-24T00:12:56;99706.03;;;12.94;72.13
76627;BME280;65519;53.230;10.390;2023-04-24T00:15:22;99704.44;;;12.93;72.34
76627;BME280;65519;53.230;10.390;2023-04-24T00:17:47;99710.41;;;12.95;72.09
76627;BME280;65519;53.230;10.390;2023-04-24T00:20:12;99699.81;;;13.02;71.58
76627;BME280;65519;53.230;10.390;2023-04-24T00:22:39;99701.88;;;12.97;72.58
76627;BME280;65519;53.230;10.390;2023-04-24T00:25:05;99698.81;;;12.98;72.22
76627;BME280;65519;53.230;10.390;2023-04-24T00:27:31;99701.78;;;12.88;72.54
76627;BME280;65519;53.230;10.390;2023-04-24T00:29:56;99698.16;;;12.79;72.88
76627;BME280;65519;53.230;10.390;2023-04-24T00:32:21;99699.47;;;12.95;71.51
76627;BME280;65519;53.230;10.390;2023-04-24T00:34:47;99703.69;;;13.01;71.68
76627;BME280;65519;53.230;10.390;2023-04-24T00:37:12;99703.69;;;13.01;71.88
76627;BME280;65519;53.230;10.390;2023-04-24T00:39:37;99701.66;;;13.07;72.35
76627;BME280;65519;53.230;10.390;2023-04-24T00:42:03;99702.25;;;13.04;71.42
76627;BME280;65519;53.230;10.390;2023-04-24T00:44:31;99688.38;;;13.00;71.28
76627;BME280;65519;53.230;10.390;2023-04-24T00:46:58;99685.13;;;12.98;72.28
76627;BME280;65519;53.230;10.390;2023-04-24T00:49:24;99673.53;;;12.93;71.62
76627;BME280;65519;53.230;10.390;2023-04-24T00:51:50;99678.56;;;12.99;71.37
76627;BME280;65519;53.230;10.390;2023-04-24T00:54:17;99677.69;;;12.90;71.74
76627;BME280;65519;53.230;10.390;2023-04-24T00:56:44;99673.84;;;12.91;71.81
76627;BME280;65519;53.230;10.390;2023-04-24T00:59:10;99668.59;;;12.81;72.22
76627;BME280;65519;53.230;10.390;2023-04-24T01:01:36;99676.56;;;12.91;71.66
76627;BME280;65519;53.230;10.390;2023-04-24T01:04:01;99685.22;;;12.85;71.66
76627;BME280;65519;53.230;10.390;2023-04-24T01:06:28;99687.53;;;12.77;71.98
76627;BME280;65519;53.230;10.390;2023-04-24T01:08:54;99689.88;;;12.84;71.93
76627;BME280;65519;53.230;10.390;2023-04-24T01:11:21;99679.34;;;12.77;72.01
76627;BME280;65519;53.230;10.390;2023-04-24T01:13:47;99685.84;;;12.68;72.74
76627;BME280;65519;53.230;10.390;2023-04-24T01:16:14;99669.75;;;12.66;72.21
76627;BME280;65519;53.230;10.390;2023-04-24T01:18:40;99670.69;;;12.62;72.92
76627;BME280;65519;53.230;10.390;2023-04-24T01:21:07;99683.75;;;12.65;71.98
76627;BME280;65519;53.230;10.390;2023-04-24T01:23:33;99680.56;;;12.71;72.18
76627;BME280;65519;53.230;10.390;2023-04-24T01:25:59;99672.91;;;12.60;72.24
76627;BME280;65519;53.230;10.390;2023-04-24T01:28:25;99672.59;;;12.61;71.26
76627;BME280;65519;53.230;10.390;2023-04-24T01:30:50;99677.69;;;12.54;71.89
76627;BME280;65519;53.230;10.390;2023-04-24T01:33:16;99666.41;;;12.56;71.79
76627;BME280;65519;53.230;10.390;2023-04-24T01:35:42;99665.13;;;12.53;71.62
76627;BME280;65519;53.230;10.390;2023-04-24T01:38:08;99674.75;;;12.51;71.01
76627;BME280;65519;53.230;10.390;2023-04-24T01:40:33;99664.41;;;12.48;71.31
76627;BME280;65519;53.230;10.390;2023-04-24T01:42:59;99668.91;;;12.43;71.57
76627;BME280;65519;53.230;10.390;2023-04-24T01:45:25;99665.44;;;12.52;71.17
76627;BME280;65519;53.230;10.390;2023-04-24T01:47:50;99659.97;;;12.52;69.99
76627;BME280;65519;53.230;10.390;2023-04-24T01:50:16;99667.75;;;12.44;70.25
76627;BME280;65519;53.230;10.390;2023-04-24T01:52:42;99665.66;;;12.41;70.68
76627;BME280;65519;53.230;10.390;2023-04-24T01:55:08;99669.69;;;12.44;69.87
76627;BME280;65519;53.230;10.390;2023-04-24T01:57:33;99653.63;;;12.42;69.89
76627;BME280;65519;53.230;10.390;2023-04-24T01:59:59;99652.97;;;12.46;70.18
76627;BME280;65519;53.230;10.390;2023-04-24T02:02:24;99655.31;;;12.38;69.90
76627;BME280;65519;53.230;10.390;2023-04-24T02:04:53;99660.88;;;12.33;70.53
76627;BME280;65519;53.230;10.390;2023-04-24T02:07:18;99653.84;;;12.32;70.95
76627;BME280;65519;53.230;10.390;2023-04-24T02:09:43;99663.63;;;12.33;71.06
76627;BME280;65519;53.230;10.390;2023-04-24T02:12:09;99665.44;;;12.38;71.20
76627;BME280;65519;53.230;10.390;2023-04-24T02:14:34;99663.22;;;12.26;71.51
76627;BME280;65519;53.230;10.390;2023-04-24T02:17:00;99665.97;;;12.26;71.38
76627;BME280;65519;53.230;10.390;2023-04-24T02:19:26;99655.63;;;12.23;71.24
76627;BME280;65519;53.230;10.390;2023-04-24T02:21:51;99656.28;;;12.20;70.79
76627;BME280;65519;53.230;10.390;2023-04-24T02:24:16;99642.50;;;12.12;71.99
76627;BME280;65519;53.230;10.390;2023-04-24T02:26:42;99646.84;;;12.13;72.28
76627;BME280;65519;53.230;10.390;2023-04-24T02:29:07;99652.31;;;12.13;71.23
76627;BME280;65519;53.230;10.390;2023-04-24T02:31:33;99651.81;;;12.11;71.46
76627;BME280;65519;53.230;10.390;2023-04-24T02:33:58;99638.03;;;12.02;72.01
76627;BME280;65519;53.230;10.390;2023-04-24T02:36:24;99641.81;;;12.06;71.49
76627;BME280;65519;53.230;10.390;2023-04-24T02:38:50;99640.47;;;12.03;72.04
76627;BME280;65519;53.230;10.390;2023-04-24T02:41:15;99644.75;;;11.96;72.11
76627;BME280;65519;53.230;10.390;2023-04-24T02:43:40;99658.91;;;11.98;71.41
76627;BME280;65519;53.230;10.390;2023-04-24T02:46:06;99673.06;;;11.86;71.61
76627;BME280;65519;53.230;10.390;2023-04-24T02:48:31;99667.19;;;11.93;71.65
76627;BME280;65519;53.230;10.390;2023-04-24T02:50:56;99645.84;;;11.95;70.55
76627;BME280;65519;53.230;10.390;2023-04-24T02:53:23;99652.41;;;11.80;71.41
76627;BME280;65519;53.230;10.390;2023-04-24T02:55:48;99652.78;;;11.74;71.50
76627;BME280;65519;53.230;10.390;2023-04-24T02:58:14;99657.22;;;11.69;72.23
76627;BME280;65519;53.230;10.390;2023-04-24T03:00:39;99663.09;;;11.63;72.13
76627;BME280;65519;53.230;10.390;2023-04-24T03:03:04;99663.31;;;11.66;71.64
76627;BME280;65519;53.230;10.390;2023-04-24T03:05:30;99674.22;;;11.66;71.74
76627;BME280;65519;53.230;10.390;2023-04-24T03:07:56;99673.19;;;11.62;71.65
76627;BME280;65519;53.230;10.390;2023-04-24T03:10:21;99664.78;;;11.59;70.99
76627;BME280;65519;53.230;10.390;2023-04-24T03:12:49;99666.41;;;11.60;71.30
76627;BME280;65519;53.230;10.390;2023-04-24T03:15:15;99666.88;;;11.48;71.22
76627;BME280;65519;53.230;10.390;2023-04-24T03:17:40;99665.19;;;11.52;71.07
76627;BME280;65519;53.230;10.390;2023-04-24T03:20:06;99666.47;;;11.41;71.50
76627;BME280;65519;53.230;10.390;2023-04-24T03:22:33;99661.00;;;11.41;71.25
76627;BME280;65519;53.230;10.390;2023-04-24T03:24:59;99674.53;;;11.32;70.73
76627;BME280;65519;53.230;10.390;2023-04-24T03:27:24;99661.78;;;11.28;71.32
76627;BME280;65519;53.230;10.390;2023-04-24T03:29:49;99664.59;;;11.23;71.08
76627;BME280;65519;53.230;10.390;2023-04-24T03:32:19;99666.00;;;11.20;71.09
76627;BME280;65519;53.230;10.390;2023-04-24T03:34:44;99665.59;;;11.13;70.66
76627;BME280;65519;53.230;10.390;2023-04-24T03:37:09;99665.78;;;11.17;70.72
76627;BME280;65519;53.230;10.390;2023-04-24T03:39:35;99668.59;;;11.12;70.36
76627;BME280;65519;53.230;10.390;2023-04-24T03:42:00;99667.88;;;11.06;70.27
76627;BME280;65519;53.230;10.390;2023-04-24T03:44:25;99673.63;;;11.05;69.43
76627;BME280;65519;53.230;10.390;2023-04-24T03:46:51;99661.69;;;11.01;69.77
76627;BME280;65519;53.230;10.390;2023-04-24T03:49:16;99665.53;;;11.00;69.32
76627;BME280;65519;53.230;10.390;2023-04-24T03:51:42;99659.31;;;10.94;68.36
76627;BME280;65519;53.230;10.390;2023-04-24T03:54:07;99661.75;;;10.95;68.54
76627;BME280;65519;53.230;10.390;2023-04-24T03:56:32;99662.28;;;10.97;68.54
76627;BME280;65519;53.230;10.390;2023-04-24T03:58:57;99661.84;;;10.90;68.76
76627;BME280;65519;53.230;10.390;2023-04-24T04:01:23;99660.81;;;10.86;68.71
76627;BME280;65519;53.230;10.390;2023-04-24T04:03:49;99652.13;;;10.84;68.51
76627;BME280;65519;53.230;10.390;2023-04-24T04:06:14;99662.34;;;10.92;67.97
76627;BME280;65519;53.230;10.390;2023-04-24T04:08:39;99662.28;;;10.97;68.47
76627;BME280;65519;53.230;10.390;2023-04-24T04:11:05;99659.72;;;10.87;68.72
76627;BME280;65519;53.230;10.390;2023-04-24T04:13:30;99665.16;;;10.87;67.88
76627;BME280;65519;53.230;10.390;2023-04-24T04:15:56;99657.03;;;10.82;67.94
76627;BME280;65519;53.230;10.390;2023-04-24T04:18:21;99665.69;;;10.89;67.54
76627;BME280;65519;53.230;10.390;2023-04-24T04:20:46;99665.47;;;10.86;67.56
76627;BME280;65519;53.230;10.390;2023-04-24T04:23:12;99672.97;;;10.94;66.50
76627;BME280;65519;53.230;10.390;2023-04-24T04:25:37;99667.81;;;10.92;67.22
76627;BME280;65519;53.230;10.390;2023-04-24T04:28:02;99666.69;;;10.93;67.15
76627;BME280;65519;53.230;10.390;2023-04-24T04:30:28;99671.56;;;10.96;67.75
76627;BME280;65519;53.230;10.390;2023-04-24T04:32:57;99671.19;;;10.84;67.74
76627;BME280;65519;53.230;10.390;2023-04-24T04:35:22;99661.19;;;10.98;67.08
76627;BME280;65519;53.230;10.390;2023-04-24T04:37:48;99658.34;;;11.04;66.50
76627;BME280;65519;53.230;10.390;2023-04-24T04:40:13;99661.06;;;11.04;67.90
76627;BME280;65519;53.230;10.390;2023-04-24T04:42:38;99657.34;;;11.00;66.94
76627;BME280;65519;53.230;10.390;2023-04-24T04:45:06;99656.94;;;11.06;67.05
76627;BME280;65519;53.230;10.390;2023-04-24T04:47:34;99660.59;;;11.02;66.96
76627;BME280;65519;53.230;10.390;2023-04-24T04:50:00;99662.88;;;10.94;66.43
76627;BME280;65519;53.230;10.390;2023-04-24T04:52:25;99661.91;;;11.04;66.26
76627;BME280;65519;53.230;10.390;2023-04-24T04:54:51;99662.50;;;11.01;66.76
76627;BME280;65519;53.230;10.390;2023-04-24T04:57:17;99656.66;;;11.08;65.87
76627;BME280;65519;53.230;10.390;2023-04-24T04:59:42;99646.56;;;11.08;66.22
76627;BME280;65519;53.230;10.390;2023-04-24T05:02:08;99654.56;;;11.18;66.33
76627;BME280;65519;53.230;10.390;2023-04-24T05:04:33;99652.16;;;11.17;66.49
76627;BME280;65519;53.230;10.390;2023-04-24T05:06:59;99658.69;;;11.16;66.06
76627;BME280;65519;53.230;10.390;2023-04-24T05:09:24;99658.69;;;11.16;66.92
76627;BME280;65519;53.230;10.390;2023-04-24T05:11:52;99661.72;;;11.14;67.03
76627;BME280;65519;53.230;10.390;2023-04-24T05:14:17;99657.78;;;11.07;67.33
76627;BME280;65519;53.230;10.390;2023-04-24T05:16:44;99660.94;;;11.14;67.72
76627;BME280;65519;53.230;10.390;2023-04-24T05:19:09;99663.16;;;11.12;67.75
76627;BME280;65519;53.230;10.390;2023-04-24T05:21:35;99657.09;;;11.15;67.78
76627;BME280;65519;53.230;10.390;2023-04-24T05:24:01;99660.94;;;11.14;68.04
76627;BME280;65519;53.230;10.390;2023-04-24T05:26:26;99672.81;;;11.04;68.15
76627;BME280;65519;53.230;10.390;2023-04-24T05:28:52;99661.06;;;11.04;68.34
76627;BME280;65519;53.230;10.390;2023-04-24T05:31:17;99670.97;;;11.00;67.92
76627;BME280;65519;53.230;10.390;2023-04-24T05:33:43;99671.50;;;11.02;67.47
76627;BME280;65519;53.230;10.390;2023-04-24T05:36:08;99674.94;;;11.07;67.47
76627;BME280;65519;53.230;10.390;2023-04-24T05:38:33;99675.84;;;11.03;67.43
76627;BME280;65519;53.230;10.390;2023-04-24T05:40:58;99690.44;;;11.12;66.87
76627;BME280;65519;53.230;10.390;2023-04-24T05:43:24;99693.03;;;11.03;67.24
76627;BME280;65519;53.230;10.390;2023-04-24T05:45:50;99680.69;;;11.06;66.98
76627;BME280;65519;53.230;10.390;2023-04-24T05:48:15;99692.63;;;11.10;66.67
76627;BME280;65519;53.230;10.390;2023-04-24T05:50:41;99685.56;;;11.09;65.87
76627;BME280;65519;53.230;10.390;2023-04-24T05:53:06;99680.09;;;11.09;65.76
76627;BME280;65519;53.230;10.390;2023-04-24T05:55:32;99681.94;;;11.13;65.29
76627;BME280;65519;53.230;10.390;2023-04-24T05:57:57;99673.31;;;11.06;64.60
76627;BME280;65519;53.230;10.390;2023-04-24T06:00:24;99679.28;;;11.08;64.87
76627;BME280;65519;53.230;10.390;2023-04-24T06:02:49;99670.44;;;11.16;64.50
76627;BME280;65519;53.230;10.390;2023-04-24T06:05:15;99679.72;;;11.15;63.77
76627;BME280;65519;53.230;10.390;2023-04-24T06:07:40;99679.34;;;11.22;63.76
76627;BME280;65519;53.230;10.390;2023-04-24T06:10:06;99683.69;;;11.23;63.61
76627;BME280;65519;53.230;10.390;2023-04-24T06:12:32;99687.25;;;11.37;62.85
76627;BME280;65519;53.230;10.390;2023-04-24T06:14:57;99679.59;;;11.39;62.77
76627;BME280;65519;53.230;10.390;2023-04-24T06:17:22;99695.59;;;11.46;63.36
76627;BME280;65519;53.230;10.390;2023-04-24T06:19:48;99685.69;;;11.50;63.30
76627;BME280;65519;53.230;10.390;2023-04-24T06:22:13;99689.16;;;11.55;62.78
76627;BME280;65519;53.230;10.390;2023-04-24T06:24:42;99683.81;;;11.64;61.97
76627;BME280;65519;53.230;10.390;2023-04-24T06:27:07;99692.41;;;11.71;62.67
76627;BME280;65519;53.230;10.390;2023-04-24T06:29:33;99677.59;;;11.77;62.32
76627;BME280;65519;53.230;10.390;2023-04-24T06:31:58;99674.06;;;11.77;61.14
76627;BME280;65519;53.230;10.390;2023-04-24T06:34:24;99680.34;;;11.77;61.50
76627;BME280;65519;53.230;10.390;2023-04-24T06:36:50;99672.03;;;11.82;61.27
76627;BME280;65519;53.230;10.390;2023-04-24T06:39:15;99666.78;;;11.86;61.20
76627;BME280;65519;53.230;10.390;2023-04-24T06:41:41;99678.63;;;11.95;60.83
76627;BME280;65519;53.230;10.390;2023-04-24T06:44:06;99661.13;;;11.96;60.68
76627;BME280;65519;53.230;10.390;2023-04-24T06:46:32;99675.91;;;12.09;60.83
76627;BME280;65519;53.230;10.390;2023-04-24T06:48:57;99674.88;;;12.18;59.98
76627;BME280;65519;53.230;10.390;2023-04-24T06:51:23;99667.78;;;12.31;60.06
76627;BME280;65519;53.230;10.390;2023-04-24T06:53:49;99670.53;;;12.31;60.39
76627;BME280;65519;53.230;10.390;2023-04-24T06:56:15;99674.06;;;12.31;60.12
76627;BME280;65519;53.230;10.390;2023-04-24T06:58:40;99681.63;;;12.48;59.49
76627;BME280;65519;53.230;10.390;2023-04-24T07:01:06;99684.69;;;12.33;59.96
76627;BME280;65519;53.230;10.390;2023-04-24T07:03:31;99687.09;;;12.48;59.92
76627;BME280;65519;53.230;10.390;2023-04-24T07:05:56;99690.44;;;12.45;59.88
76627;BME280;65519;53.230;10.390;2023-04-24T07:08:23;99683.34;;;12.58;60.28
76627;BME280;65519;53.230;10.390;2023-04-24T07:10:49;99673.69;;;12.74;60.06
76627;BME280;65519;53.230;10.390;2023-04-24T07:13:16;99675.53;;;12.65;59.01
76627;BME280;65519;53.230;10.390;2023-04-24T07:15:42;99682.50;;;12.71;58.55
76627;BME280;65519;53.230;10.390;2023-04-24T07:18:08;99682.13;;;12.64;58.58
76627;BME280;65519;53.230;10.390;2023-04-24T07:20:33;99681.63;;;12.62;58.74
76627;BME280;65519;53.230;10.390;2023-04-24T07:22:59;99677.63;;;12.68;57.01
76627;BME280;65519;53.230;10.390;2023-04-24T07:25:25;99678.50;;;12.91;56.34
76627;BME280;65519;53.230;10.390;2023-04-24T07:27:50;99694.31;;;12.80;56.30
76627;BME280;65519;53.230;10.390;2023-04-24T07:30:16;99683.75;;;12.65;56.76
76627;BME280;65519;53.230;10.390;2023-04-24T07:32:41;99698.34;;;12.47;56.93
76627;BME280;65519;53.230;10.390;2023-04-24T07:35:07;99703.88;;;12.55;56.50
76627;BME280;65519;53.230;10.390;2023-04-24T07:37:32;99699.34;;;12.51;56.48
76627;BME280;65519;53.230;10.390;2023-04-24T07:39:58;99705.94;;;12.50;56.69
76627;BME280;65519;53.230;10.390;2023-04-24T07:42:23;99689.63;;;12.44;57.88
76627;BME280;65519;53.230;10.390;2023-04-24T07:44:49;99694.44;;;12.75;57.68
76627;BME280;65519;53.230;10.390;2023-04-24T07:47:14;99682.94;;;12.51;57.97
76627;BME280;65519;53.230;10.390;2023-04-24T07:49:43;99698.91;;;12.71;57.64
76627;BME280;65519;53.230;10.390;2023-04-24T07:52:09;99692.03;;;12.60;57.40
76627;BME280;65519;53.230;10.390;2023-04-24T07:54:34;99698.91;;;12.71;57.79
76627;BME280;65519;53.230;10.390;2023-04-24T07:56:59;99691.22;;;12.73;58.19
76627;BME280;65519;53.230;10.390;2023-04-24T07:59:25;99690.81;;;12.66;57.71
76627;BME280;65519;53.230;10.390;2023-04-24T08:01:51;99696.69;;;12.73;57.55
76627;BME280;65519;53.230;10.390;2023-04-24T08:04:16;99698.47;;;12.77;57.58
76627;BME280;65519;53.230;10.390;2023-04-24T08:06:43;99709.84;;;12.71;57.94
76627;BME280;65519;53.230;10.390;2023-04-24T08:09:08;99704.53;;;12.88;57.50
76627;BME280;65519;53.230;10.390;2023-04-24T08:11:34;99707.59;;;12.87;58.07
76627;BME280;65519;53.230;10.390;2023-04-24T08:13:59;99710.19;;;12.92;57.78
76627;BME280;65519;53.230;10.390;2023-04-24T08:16:25;99710.53;;;13.12;57.64
76627;BME280;65519;53.230;10.390;2023-04-24T08:18:51;99707.81;;;13.12;55.68
76627;BME280;65519;53.230;10.390;2023-04-24T08:21:16;99723.72;;;13.10;55.56
76627;BME280;65519;53.230;10.390;2023-04-24T08:23:44;99719.13;;;12.97;55.43
76627;BME280;65519;53.230;10.390;2023-04-24T08:26:09;99712.03;;;12.96;56.35
76627;BME280;65519;53.230;10.390;2023-04-24T08:28:36;99713.41;;;13.07;55.21
76627;BME280;65519;53.230;10.390;2023-04-24T08:31:01;99726.81;;;12.95;55.19
76627;BME280;65519;53.230;10.390;2023-04-24T08:33:27;99728.81;;;13.03;55.18
76627;BME280;65519;53.230;10.390;2023-04-24T08:35:57;99725.97;;;13.08;55.67
76627;BME280;65519;53.230;10.390;2023-04-24T08:38:23;99727.50;;;13.01;55.02
76627;BME280;65519;53.230;10.390;2023-04-24T08:40:49;99720.38;;;13.13;55.26
76627;BME280;65519;53.230;10.390;2023-04-24T08:43:15;99727.50;;;13.14;55.64
76627;BME280;65519;53.230;10.390;2023-04-24T08:45:41;99725.94;;;13.22;56.16
76627;BME280;65519;53.230;10.390;2023-04-24T08:48:07;99711.56;;;13.17;54.88
76627;BME280;65519;53.230;10.390;2023-04-24T08:50:32;99725.63;;;13.10;54.24
76627;BME280;65519;53.230;10.390;2023-04-24T08:53:00;99733.03;;;13.09;54.84
76627;BME280;65519;53.230;10.390;2023-04-24T08:55:26;99730.00;;;13.11;56.16
76627;BME280;65519;53.230;10.390;2023-04-24T08:57:52;99725.63;;;13.10;55.11
76627;BME280;65519;53.230;10.390;2023-04-24T09:00:20;99719.28;;;13.14;55.25
76627;BME280;65519;53.230;10.390;2023-04-24T09:02:52;99729.31;;;13.19;54.68
76627;BME280;65519;53.230;10.390;2023-04-24T09:05:18;99726.59;;;13.05;55.46
76627;BME280;65519;53.230;10.390;2023-04-24T09:07:53;99734.50;;;12.93;56.14
76627;BME280;65519;53.230;10.390;2023-04-24T09:10:19;99729.81;;;13.07;56.25
76627;BME280;65519;53.230;10.390;2023-04-24T09:12:46;99744.44;;;12.89;57.60
76627;BME280;65519;53.230;10.390;2023-04-24T09:15:11;99735.28;;;13.07;57.70
76627;BME280;65519;53.230;10.390;2023-04-24T09:17:37;99755.88;;;13.19;56.84
76627;BME280;65519;53.230;10.390;2023-04-24T09:20:03;99742.38;;;13.08;56.95
76627;BME280;65519;53.230;10.390;2023-04-24T09:22:30;99740.56;;;13.18;56.32
76627;BME280;65519;53.230;10.390;2023-04-24T09:25:06;99745.06;;;12.86;57.09
76627;BME280;65519;53.230;10.390;2023-04-24T09:27:33;99753.66;;;12.93;56.98
76627;BME280;65519;53.230;10.390;2023-04-24T09:29:59;99744.13;;;13.04;57.10
76627;BME280;65519;53.230;10.390;2023-04-24T09:32:25;99745.84;;;13.14;55.79
76627;BME280;65519;53.230;10.390;2023-04-24T09:35:11;99752.88;;;13.29;54.39
76627;BME280;65519;53.230;10.390;2023-04-24T09:42:36;99736.66;;;13.85;53.44
76627;BME280;65519;53.230;10.390;2023-04-24T09:45:02;99747.84;;;13.67;53.16
76627;BME280;65519;53.230;10.390;2023-04-24T09:47:35;99747.69;;;13.41;53.93
76627;BME280;65519;53.230;10.390;2023-04-24T09:50:09;99749.59;;;13.18;55.12
76627;BME280;65519;53.230;10.390;2023-04-24T09:52:35;99751.69;;;13.43;53.79
76627;BME280;65519;53.230;10.390;2023-04-24T09:55:00;99760.09;;;13.47;53.86
76627;BME280;65519;53.230;10.390;2023-04-24T09:57:25;99763.19;;;13.32;54.14
76627;BME280;65519;53.230;10.390;2023-04-24T09:59:53;99763.34;;;13.71;53.04
76627;BME280;65519;53.230;10.390;2023-04-24T10:02:19;99764.53;;;13.57;52.46
76627;BME280;65519;53.230;10.390;2023-04-24T10:04:55;99770.44;;;13.50;53.09
76627;BME280;65519;53.230;10.390;2023-04-24T10:07:21;99770.28;;;13.33;53.28
76627;BME280;65519;53.230;10.390;2023-04-24T10:09:47;99773.91;;;13.42;53.43
76627;BME280;65519;53.230;10.390;2023-04-24T10:12:12;99771.31;;;13.37;52.57
76627;BME280;65519;53.230;10.390;2023-04-24T10:14:38;99775.59;;;13.29;53.43
76627;BME280;65519;53.230;10.390;2023-04-24T10:17:05;99773.84;;;13.56;52.05
76627;BME280;65519;53.230;10.390;2023-04-24T10:19:32;99767.56;;;13.55;51.60
76627;BME280;65519;53.230;10.390;2023-04-24T10:21:58;99772.31;;;13.41;52.08
76627;BME280;65519;53.230;10.390;2023-04-24T10:24:23;99764.50;;;13.79;52.38
76627;BME280;65519;53.230;10.390;2023-04-24T10:26:49;99773.09;;;13.41;52.02
76627;BME280;65519;53.230;10.390;2023-04-24T10:29:16;99764.81;;;13.33;52.28
76627;BME280;65519;53.230;10.390;2023-04-24T10:31:42;99769.94;;;13.48;51.95
76627;BME280;65519;53.230;10.390;2023-04-24T10:34:10;99758.84;;;13.53;51.58
76627;BME280;65519;53.230;10.390;2023-04-24T10:36:39;99762.69;;;13.97;51.26
76627;BME280;65519;53.230;10.390;2023-04-24T10:39:09;99768.72;;;13.85;51.96
76627;BME280;65519;53.230;10.390;2023-04-24T10:41:37;99771.41;;;13.32;53.01
76627;BME280;65519;53.230;10.390;2023-04-24T10:44:11;99780.25;;;13.29;53.42
76627;BME280;65519;53.230;10.390;2023-04-24T10:46:37;99772.22;;;12.96;52.69
76627;BME280;65519;53.230;10.390;2023-04-24T10:49:04;99772.97;;;13.10;52.93
76627;BME280;65519;53.230;10.390;2023-04-24T10:54:29;99756.50;;;13.60;52.06
76627;BME280;65519;53.230;10.390;2023-04-24T10:59:49;99759.22;;;14.13;52.81
76627;BME280;65519;53.230;10.390;2023-04-24T11:02:16;99751.22;;;14.56;51.02
76627;BME280;65519;53.230;10.390;2023-04-24T11:04:42;99763.75;;;14.18;48.14
76627;BME280;65519;53.230;10.390;2023-04-24T11:07:09;99752.47;;;13.88;48.21
76627;BME280;65519;53.230;10.390;2023-04-24T11:09:34;99761.66;;;13.84;49.15
76627;BME280;65519;53.230;10.390;2023-04-24T11:12:09;99762.50;;;13.62;50.32
76627;BME280;65519;53.230;10.390;2023-04-24T11:17:29;99756.63;;;13.55;50.41
76627;BME280;65519;53.230;10.390;2023-04-24T11:20:01;99766.75;;;13.55;49.75
76627;BME280;65519;53.230;10.390;2023-04-24T11:22:28;99760.22;;;13.64;48.47
76627;BME280;65519;53.230;10.390;2023-04-24T11:24:59;99757.84;;;13.94;48.09
76627;BME280;65519;53.230;10.390;2023-04-24T11:27:38;99736.22;;;14.23;46.74
76627;BME280;65519;53.230;10.390;2023-04-24T11:30:05;99762.69;;;13.97;45.79
76627;BME280;65519;53.230;10.390;2023-04-24T11:32:34;99765.59;;;13.69;46.90
76627;BME280;65519;53.230;10.390;2023-04-24T11:35:18;99754.06;;;13.81;48.23
76627;BME280;65519;53.230;10.390;2023-04-24T11:37:49;99757.19;;;13.97;47.57
76627;BME280;65519;53.230;10.390;2023-04-24T11:40:17;99770.16;;;14.05;46.57
76627;BME280;65519;53.230;10.390;2023-04-24T11:42:47;99761.84;;;13.65;47.86
76627;BME280;65519;53.230;10.390;2023-04-24T11:47:47;99755.63;;;13.73;47.72
76627;BME280;65519;53.230;10.390;2023-04-24T11:50:14;99766.44;;;13.56;48.22
76627;BME280;65519;53.230;10.390;2023-04-24T11:52:42;99764.53;;;13.57;49.43
76627;BME280;65519;53.230;10.390;2023-04-24T11:55:23;99783.47;;;13.31;49.76
76627;BME280;65519;53.230;10.390;2023-04-24T11:57:54;99779.47;;;13.14;50.05
76627;BME280;65519;53.230;10.390;2023-04-24T12:02:48;99775.63;;;13.15;50.73
76627;BME280;65519;53.230;10.390;2023-04-24T12:07:46;99789.50;;;13.05;51.79
76627;BME280;65519;53.230;10.390;2023-04-24T12:10:11;99781.53;;;12.95;52.28
76627;BME280;65519;53.230;10.390;2023-04-24T12:12:37;99779.69;;;13.04;51.83
76627;BME280;65519;53.230;10.390;2023-04-24T12:15:07;99781.31;;;12.92;51.99
76627;BME280;65519;53.230;10.390;2023-04-24T12:17:34;99776.88;;;12.96;51.95
76627;BME280;65519;53.230;10.390;2023-04-24T12:20:06;99777.84;;;13.00;52.24
76627;BME280;65519;53.230;10.390;2023-04-24T12:25:13;99773.28;;;13.23;51.48
76627;BME280;65519;53.230;10.390;2023-04-24T12:27:38;99787.56;;;13.20;51.43
76627;BME280;65519;53.230;10.390;2023-04-24T12:30:05;99772.53;;;13.31;51.72
76627;BME280;65519;53.230;10.390;2023-04-24T12:32:31;99773.16;;;13.28;51.08
76627;BME280;65519;53.230;10.390;2023-04-24T12:34:57;99780.38;;;13.24;51.08
76627;BME280;65519;53.230;10.390;2023-04-24T12:37:24;99771.66;;;13.44;49.96
76627;BME280;65519;53.230;10.390;2023-04-24T12:40:10;99769.09;;;13.61;49.76
76627;BME280;65519;53.230;10.390;2023-04-24T12:42:42;99764.59;;;13.65;49.78
76627;BME280;65519;53.230;10.390;2023-04-24T12:45:08;99758.94;;;13.39;50.50
76627;BME280;65519;53.230;10.390;2023-04-24T12:47:34;99776.66;;;13.42;51.02
76627;BME280;65519;53.230;10.390;2023-04-24T12:50:00;99773.28;;;13.23;51.82
76627;BME280;65519;53.230;10.390;2023-04-24T12:52:27;99765.94;;;13.32;52.19
76627;BME280;65519;53.230;10.390;2023-04-24T12:54:54;99775.59;;;13.29;52.41
76627;BME280;65519;53.230;10.390;2023-04-24T12:57:21;99789.38;;;13.10;52.28
76627;BME280;65519;53.230;10.390;2023-04-24T12:59:46;99790.84;;;12.94;52.28
76627;BME280;65519;53.230;10.390;2023-04-24T13:02:12;99788.63;;;12.83;53.19
76627;BME280;65519;53.230;10.390;2023-04-24T13:04:37;99778.72;;;12.73;52.95
76627;BME280;65519;53.230;10.390;2023-04-24T13:07:03;99786.19;;;12.67;53.45
76627;BME280;65519;53.230;10.390;2023-04-24T13:09:28;99786.41;;;12.57;53.78